Time;durP1;ratioP1;P1;durP2;ratioP2;P2;SDS_P1;SDS_P2;PMS_P1;PMS_P2;Temp;Humidity;BMP_temperature;BMP_pressure;BME280_temperature;BME280_humidity;BME280_pressure;Samples;Min_cycle;Max_cycle;Signal;HPM_P1;HPM_P2
2021/01/13 00:00:08;;;;;;;15.47;8.40;;;1.70;94.10;;;;;;4921814;29;20027;-80
2021/01/13 00:02:34;;;;;;;15.13;8.37;;;1.70;94.10;;;;;;4903103;29;20024;-80
2021/01/13 00:05:00;;;;;;;15.77;8.73;;;1.70;94.10;;;;;;4911822;29;20529;-78
2021/01/13 00:07:25;;;;;;;14.10;8.27;;;1.70;94.20;;;;;;4908646;29;20020;-79
2021/01/13 00:09:51;;;;;;;16.23;8.87;;;1.70;94.10;;;;;;4921664;29;20107;-80
2021/01/13 00:12:17;;;;;;;14.30;8.87;;;1.70;94.10;;;;;;4914700;29;20075;-80
2021/01/13 00:14:43;;;;;;;17.10;9.00;;;1.70;94.10;;;;;;4901856;29;20032;-78
2021/01/13 00:17:09;;;;;;;18.13;9.47;;;1.70;94.10;;;;;;4902013;29;20038;-79
2021/01/13 00:19:36;;;;;;;16.17;9.30;;;1.70;94.10;;;;;;4902897;29;20482;-79
2021/01/13 00:22:02;;;;;;;17.53;9.47;;;1.80;94.10;;;;;;4906401;29;20051;-81
2021/01/13 00:24:28;;;;;;;17.60;9.57;;;1.90;94.10;;;;;;4956664;29;20495;-79
2021/01/13 00:26:59;;;;;;;14.87;8.60;;;1.80;94.00;;;;;;4933411;29;20028;-80
2021/01/13 00:29:25;;;;;;;16.60;9.27;;;1.80;93.90;;;;;;4920628;29;20059;-79
2021/01/13 00:31:55;;;;;;;16.00;8.77;;;1.90;93.90;;;;;;4907627;29;20111;-79
2021/01/13 00:34:21;;;;;;;19.50;9.50;;;1.80;93.80;;;;;;4917105;29;20488;-79
2021/01/13 00:36:46;;;;;;;15.27;9.37;;;1.90;93.80;;;;;;4918559;29;20032;-79
2021/01/13 00:39:13;;;;;;;13.33;7.73;;;1.90;93.80;;;;;;4909287;29;20222;-79
2021/01/13 00:41:39;;;;;;;16.40;8.47;;;1.90;93.70;;;;;;4908494;29;20028;-79
2021/01/13 00:44:05;;;;;;;15.83;8.40;;;1.90;93.60;;;;;;4915604;29;20036;-77
2021/01/13 00:46:42;;;;;;;18.83;9.33;;;1.90;93.60;;;;;;4904553;29;20036;-77
2021/01/13 00:49:09;;;;;;;14.93;8.60;;;1.90;93.80;;;;;;4918364;29;20042;-79
2021/01/13 00:51:40;;;;;;;15.60;8.47;;;1.90;93.50;;;;;;4909166;29;20044;-79
2021/01/13 00:54:08;;;;;;;17.60;9.52;;;1.90;93.60;;;;;;4921639;29;20028;-79
2021/01/13 00:56:34;;;;;;;15.73;8.67;;;1.90;93.50;;;;;;4904833;29;20047;-79
2021/01/13 00:59:00;;;;;;;13.33;8.33;;;1.90;93.60;;;;;;4930570;29;20111;-78
2021/01/13 01:01:27;;;;;;;15.60;8.10;;;1.90;93.50;;;;;;4910955;29;20457;-78
2021/01/13 01:03:54;;;;;;;16.27;9.13;;;1.90;93.40;;;;;;4935790;29;20040;-79
2021/01/13 01:06:20;;;;;;;14.03;8.10;;;1.80;93.40;;;;;;4919154;29;20055;-79
2021/01/13 01:08:46;;;;;;;15.20;8.90;;;1.80;93.30;;;;;;4901235;29;20024;-79
2021/01/13 01:11:14;;;;;;;14.03;8.07;;;1.80;93.40;;;;;;4917326;29;20043;-79
2021/01/13 01:13:40;;;;;;;15.03;8.53;;;1.80;93.40;;;;;;4913435;29;20476;-77
2021/01/13 01:16:05;;;;;;;14.30;8.23;;;1.80;93.40;;;;;;4904843;29;20040;-77
2021/01/13 01:18:31;;;;;;;15.97;8.23;;;1.70;93.40;;;;;;4904235;29;20067;-78
2021/01/13 01:20:57;;;;;;;14.63;8.07;;;1.70;93.50;;;;;;4913975;29;20040;-78
2021/01/13 01:23:22;;;;;;;18.40;9.30;;;1.70;93.60;;;;;;4904532;29;20028;-78
2021/01/13 01:25:48;;;;;;;15.37;8.47;;;1.70;93.60;;;;;;4913083;29;20543;-78
2021/01/13 01:28:13;;;;;;;13.37;7.93;;;1.70;93.60;;;;;;4903776;29;20060;-77
2021/01/13 01:30:39;;;;;;;16.60;8.97;;;1.70;93.60;;;;;;4930818;29;20111;-78
2021/01/13 01:33:05;;;;;;;14.87;8.43;;;1.60;93.60;;;;;;4929588;29;20028;-77
2021/01/13 01:35:30;;;;;;;13.37;8.00;;;1.60;93.60;;;;;;4928136;29;20094;-77
2021/01/13 01:37:56;;;;;;;15.60;8.83;;;1.60;93.60;;;;;;4905730;29;20055;-77
2021/01/13 01:40:21;;;;;;;18.07;8.17;;;1.70;93.60;;;;;;4916607;29;20035;-76
2021/01/13 01:42:49;;;;;;;13.43;8.37;;;1.70;93.60;;;;;;4905373;29;20465;-75
2021/01/13 01:45:17;;;;;;;14.87;8.30;;;1.60;93.50;;;;;;4928226;29;20517;-78
2021/01/13 01:47:58;;;;;;;14.27;7.93;;;1.60;93.50;;;;;;4912446;29;20057;-78
2021/01/13 01:50:27;;;;;;;16.30;7.93;;;1.60;93.50;;;;;;4920787;29;20099;-77
2021/01/13 01:53:18;;;;;;;12.77;7.50;;;1.60;93.50;;;;;;4913199;29;20076;-78
2021/01/13 01:55:54;;;;;;;12.80;7.27;;;1.60;93.50;;;;;;4929651;29;20042;-77
2021/01/13 01:58:31;;;;;;;13.40;7.53;;;1.60;93.60;;;;;;4920858;29;20028;-78
2021/01/13 02:00:59;;;;;;;14.87;7.60;;;1.50;93.50;;;;;;4923506;29;20030;-78
2021/01/13 02:03:48;;;;;;;15.30;7.50;;;1.50;93.30;;;;;;4936933;29;20576;-77
2021/01/13 02:06:16;;;;;;;12.73;7.53;;;1.40;93.20;;;;;;4914280;29;20046;-78
2021/01/13 02:08:42;;;;;;;11.70;7.43;;;1.40;93.30;;;;;;4937220;29;20058;-77
2021/01/13 02:11:17;;;;;;;12.73;7.00;;;1.30;93.10;;;;;;4919644;29;20066;-78
2021/01/13 02:13:44;;;;;;;12.17;7.67;;;1.20;93.10;;;;;;4920268;29;20027;-77
2021/01/13 02:16:15;;;;;;;14.63;8.03;;;1.20;93.10;;;;;;4935961;29;20059;-79
2021/01/13 02:18:42;;;;;;;14.20;7.90;;;1.20;93.20;;;;;;4936814;29;20032;-79
2021/01/13 02:21:16;;;;;;;14.40;8.13;;;1.10;93.10;;;;;;4936178;29;20032;-80
2021/01/13 02:24:12;;;;;;;13.77;7.70;;;1.10;93.00;;;;;;4936682;29;20028;-80
2021/01/13 02:27:03;;;;;;;16.07;8.60;;;1.20;93.40;;;;;;4932623;29;20052;-79
2021/01/13 02:30:00;;;;;;;13.53;7.57;;;1.20;93.50;;;;;;4920413;29;20380;-80
2021/01/13 02:32:32;;;;;;;14.03;7.27;;;1.20;93.50;;;;;;4928412;29;20107;-80
2021/01/13 02:34:57;;;;;;;16.58;7.90;;;1.20;93.50;;;;;;4919204;29;20036;-79
2021/01/13 02:37:44;;;;;;;18.17;8.93;;;1.30;93.50;;;;;;4919595;29;20064;-78
2021/01/13 02:40:20;;;;;;;14.57;7.80;;;1.30;93.30;;;;;;4918969;29;20500;-79
2021/01/13 02:42:51;;;;;;;13.67;7.43;;;1.30;93.20;;;;;;4936622;29;20032;-79
2021/01/13 02:45:19;;;;;;;14.47;7.20;;;1.30;93.10;;;;;;4918794;29;20042;-79
2021/01/13 02:48:02;;;;;;;12.67;7.07;;;1.30;93.00;;;;;;4936060;29;20030;-79
2021/01/13 02:50:33;;;;;;;13.90;6.67;;;1.40;92.90;;;;;;4936350;29;20039;-77
2021/01/13 02:53:14;;;;;;;11.98;7.45;;;1.40;92.80;;;;;;4918316;29;20052;-78
2021/01/13 02:56:07;;;;;;;15.17;6.97;;;1.30;92.70;;;;;;4951535;29;20040;-78
2021/01/13 02:58:37;;;;;;;12.37;6.53;;;1.30;92.80;;;;;;4936544;29;20032;-78
2021/01/13 03:01:05;;;;;;;15.87;7.43;;;1.30;92.80;;;;;;4919287;29;20028;-78
2021/01/13 03:03:33;;;;;;;11.60;6.63;;;1.30;92.80;;;;;;4920295;29;20023;-80
2021/01/13 03:06:09;;;;;;;13.00;7.00;;;1.40;92.80;;;;;;4935918;29;20035;-80
2021/01/13 03:09:14;;;;;;;12.73;6.87;;;1.40;92.80;;;;;;4919619;29;20028;-80
2021/01/13 03:11:41;;;;;;;14.47;7.20;;;1.40;92.70;;;;;;4915336;29;20028;-79
2021/01/13 03:14:17;;;;;;;13.30;7.33;;;1.40;92.80;;;;;;4914810;29;20044;-78
2021/01/13 03:17:03;;;;;;;12.70;7.03;;;1.40;92.70;;;;;;4899233;29;20040;-78
2021/01/13 03:20:13;;;;;;;13.47;7.27;;;1.40;92.70;;;;;;4914858;29;20040;-78
2021/01/13 03:22:58;;;;;;;13.40;6.63;;;1.40;92.60;;;;;;4914926;29;20083;-78
2021/01/13 03:25:25;;;;;;;11.33;6.77;;;1.40;92.60;;;;;;4914982;29;20593;-78
2021/01/13 03:27:53;;;;;;;14.67;7.33;;;1.50;92.60;;;;;;4899051;29;20127;-78
2021/01/13 03:30:20;;;;;;;17.50;7.97;;;1.50;92.50;;;;;;4898573;29;20064;-78
2021/01/13 03:33:01;;;;;;;14.97;6.93;;;1.50;92.50;;;;;;4898870;29;20120;-77
2021/01/13 03:35:44;;;;;;;13.77;7.97;;;1.50;92.50;;;;;;4898800;29;20136;-78
2021/01/13 03:38:17;;;;;;;16.57;7.17;;;1.40;92.50;;;;;;4898476;29;20079;-78
2021/01/13 03:40:45;;;;;;;15.77;7.67;;;1.40;92.50;;;;;;4898754;29;20055;-78
2021/01/13 03:43:22;;;;;;;14.33;7.63;;;1.30;92.50;;;;;;4931329;29;20047;-78
2021/01/13 03:45:50;;;;;;;16.23;7.73;;;1.30;92.80;;;;;;4918759;29;20126;-78
2021/01/13 03:48:36;;;;;;;13.47;6.70;;;1.30;92.50;;;;;;4919659;29;20207;-79
2021/01/13 03:51:02;;;;;;;15.57;7.67;;;1.30;92.50;;;;;;4954217;29;20060;-80
2021/01/13 03:53:37;;;;;;;15.53;7.57;;;1.30;92.50;;;;;;4923077;29;20055;-79
2021/01/13 03:56:03;;;;;;;13.90;7.20;;;1.20;92.40;;;;;;4939380;29;20032;-79
2021/01/13 03:58:43;;;;;;;16.80;7.43;;;1.20;92.50;;;;;;4922844;29;20028;-80
2021/01/13 04:01:40;;;;;;;15.73;7.83;;;1.20;92.50;;;;;;4922457;29;20035;-79
2021/01/13 04:04:47;;;;;;;11.23;6.43;;;1.20;92.50;;;;;;4953981;29;20031;-79
2021/01/13 04:07:14;;;;;;;15.87;7.60;;;1.20;92.50;;;;;;4902029;29;20028;-79
2021/01/13 04:09:41;;;;;;;15.83;7.47;;;1.20;92.30;;;;;;4902718;29;20028;-79
2021/01/13 04:12:13;;;;;;;15.77;7.33;;;1.30;92.20;;;;;;4901818;29;20036;-79
2021/01/13 04:14:48;;;;;;;13.40;6.82;;;1.30;92.10;;;;;;4902355;29;20032;-79
2021/01/13 04:17:15;;;;;;;14.97;7.07;;;1.30;91.90;;;;;;4917839;29;20071;-79
2021/01/13 04:19:45;;;;;;;16.40;6.80;;;1.30;91.90;;;;;;4902338;29;20063;-79
2021/01/13 04:22:15;;;;;;;13.87;6.77;;;1.30;92.00;;;;;;4902029;29;20063;-79
2021/01/13 04:24:42;;;;;;;15.70;7.17;;;1.30;91.90;;;;;;4902268;29;20040;-79
2021/01/13 04:27:18;;;;;;;13.23;6.67;;;1.30;91.90;;;;;;4917640;29;20043;-79
2021/01/13 04:29:45;;;;;;;15.23;7.07;;;1.30;91.90;;;;;;4902375;29;20172;-79
2021/01/13 04:32:11;;;;;;;18.33;7.67;;;1.20;92.00;;;;;;4917371;29;20047;-79
2021/01/13 04:34:38;;;;;;;14.47;7.73;;;1.20;92.00;;;;;;4901869;29;20047;-78
2021/01/13 04:37:06;;;;;;;20.60;7.90;;;1.20;92.00;;;;;;4919752;29;20072;-78
2021/01/13 04:39:33;;;;;;;14.60;6.83;;;1.20;92.00;;;;;;4921895;29;20082;-78
2021/01/13 04:42:08;;;;;;;17.67;8.50;;;1.20;92.10;;;;;;4938589;29;20464;-78
2021/01/13 04:45:03;;;;;;;20.03;8.20;;;1.10;92.10;;;;;;4938539;29;20241;-78
2021/01/13 04:47:50;;;;;;;16.10;7.23;;;1.10;92.10;;;;;;4921313;29;20051;-78
2021/01/13 04:50:18;;;;;;;14.97;7.50;;;1.00;92.10;;;;;;4938022;29;20039;-78
2021/01/13 04:52:47;;;;;;;17.50;7.90;;;1.00;92.10;;;;;;4921295;29;20044;-78
2021/01/13 04:55:26;;;;;;;17.70;7.93;;;1.10;92.20;;;;;;4937862;29;20039;-78
2021/01/13 04:58:07;;;;;;;19.93;8.20;;;1.00;92.20;;;;;;4938358;29;20031;-78
2021/01/13 05:01:11;;;;;;;18.37;7.47;;;1.00;92.20;;;;;;4951921;28;20080;-78
2021/01/13 05:03:41;;;;;;;16.40;7.77;;;1.10;92.30;;;;;;4913672;29;20036;-79
2021/01/13 05:06:25;;;;;;;15.40;7.80;;;1.00;92.20;;;;;;4937648;29;20038;-79
2021/01/13 05:09:05;;;;;;;19.53;7.73;;;1.00;92.20;;;;;;4938349;29;20107;-79
2021/01/13 05:11:42;;;;;;;14.10;7.87;;;1.00;92.30;;;;;;4953128;28;20028;-79
2021/01/13 05:14:09;;;;;;;17.87;7.83;;;0.90;92.30;;;;;;4937556;29;20034;-79
2021/01/13 05:17:03;;;;;;;15.23;7.80;;;0.90;92.30;;;;;;4921153;29;20110;-79
2021/01/13 05:19:32;;;;;;;17.00;7.60;;;0.90;92.30;;;;;;4934087;29;20111;-79
2021/01/13 05:21:59;;;;;;;19.53;7.17;;;0.90;92.40;;;;;;4952756;28;20039;-79
2021/01/13 05:24:31;;;;;;;17.63;8.37;;;0.80;92.30;;;;;;4920077;29;20032;-78
2021/01/13 05:27:00;;;;;;;14.63;7.18;;;0.80;92.40;;;;;;4921027;29;20027;-78
2021/01/13 05:29:26;;;;;;;15.83;7.43;;;0.80;92.40;;;;;;4937072;29;20043;-79
2021/01/13 05:31:54;;;;;;;15.43;7.57;;;0.80;92.30;;;;;;4937657;29;20024;-79
2021/01/13 05:34:20;;;;;;;16.87;7.63;;;0.70;92.40;;;;;;4919900;29;20039;-79
2021/01/13 05:37:19;;;;;;;16.83;7.43;;;0.80;92.60;;;;;;4937715;29;20020;-79
2021/01/13 05:39:50;;;;;;;15.87;7.13;;;0.80;92.30;;;;;;4921115;29;20035;-78
2021/01/13 05:42:18;;;;;;;16.67;7.10;;;0.80;92.20;;;;;;4937492;29;20026;-79
2021/01/13 05:44:46;;;;;;;16.43;6.80;;;0.70;92.20;;;;;;4920479;29;20040;-78
2021/01/13 05:47:27;;;;;;;16.00;7.40;;;0.70;92.20;;;;;;4920027;29;20078;-79
2021/01/13 05:49:54;;;;;;;16.07;7.27;;;0.70;92.10;;;;;;4937555;29;20166;-79
2021/01/13 05:52:20;;;;;;;16.93;7.40;;;0.70;92.10;;;;;;4919785;29;20059;-79
2021/01/13 05:54:46;;;;;;;18.83;6.97;;;0.70;92.10;;;;;;4920365;29;20035;-79
2021/01/13 05:57:16;;;;;;;16.20;6.73;;;0.70;92.20;;;;;;4920063;29;20593;-80
2021/01/13 05:59:45;;;;;;;17.93;7.77;;;0.70;92.10;;;;;;4920330;29;20028;-79
2021/01/13 06:02:15;;;;;;;17.07;7.20;;;0.70;92.10;;;;;;4919945;29;20163;-80
2021/01/13 06:04:46;;;;;;;17.40;6.87;;;0.70;92.10;;;;;;4937296;29;20028;-79
2021/01/13 06:07:24;;;;;;;14.63;6.95;;;0.70;92.20;;;;;;4936774;29;20469;-80
2021/01/13 06:09:55;;;;;;;19.50;6.57;;;0.60;92.10;;;;;;4919995;29;20031;-79
2021/01/13 06:12:24;;;;;;;14.03;5.93;;;0.60;92.10;;;;;;4919300;29;20028;-79
2021/01/13 06:14:54;;;;;;;14.43;6.80;;;0.60;92.10;;;;;;4936860;29;20122;-79
2021/01/13 06:17:23;;;;;;;19.33;7.07;;;0.60;92.10;;;;;;4919357;29;20031;-80
2021/01/13 06:19:56;;;;;;;15.13;7.40;;;0.60;92.10;;;;;;4920180;29;20055;-79
2021/01/13 06:22:32;;;;;;;12.67;6.57;;;0.60;92.10;;;;;;4919520;29;20039;-79
2021/01/13 06:24:59;;;;;;;15.00;6.43;;;0.50;92.10;;;;;;4919476;29;20094;-79
2021/01/13 06:27:54;;;;;;;15.30;6.93;;;0.50;92.20;;;;;;4951048;28;20027;-77
2021/01/13 06:30:44;;;;;;;12.30;6.37;;;0.50;92.20;;;;;;4919329;29;20024;-78
2021/01/13 06:33:23;;;;;;;14.00;6.00;;;0.50;92.20;;;;;;4919369;29;20028;-77
2021/01/13 06:36:07;;;;;;;16.40;6.53;;;0.40;92.20;;;;;;4919807;29;20126;-77
2021/01/13 06:38:41;;;;;;;17.97;6.87;;;0.40;92.20;;;;;;4919560;29;20039;-78
2021/01/13 06:41:07;;;;;;;21.47;7.23;;;0.40;92.30;;;;;;4919150;29;20032;-79
2021/01/13 06:43:34;;;;;;;16.30;7.07;;;0.40;92.30;;;;;;4919262;29;20027;-78
2021/01/13 06:45:59;;;;;;;19.10;7.10;;;0.30;92.30;;;;;;4935995;29;20035;-78
2021/01/13 06:48:29;;;;;;;15.23;5.93;;;0.30;92.30;;;;;;4918676;29;20046;-80
2021/01/13 06:50:56;;;;;;;19.53;6.23;;;0.30;92.30;;;;;;4936323;29;20035;-79
2021/01/13 06:53:23;;;;;;;15.03;6.73;;;0.30;92.30;;;;;;4918621;29;20051;-77
2021/01/13 06:55:50;;;;;;;11.20;5.77;;;0.30;92.20;;;;;;4951388;29;20437;-77
2021/01/13 06:58:18;;;;;;;10.43;5.40;;;0.30;92.20;;;;;;4950781;29;20177;-77
2021/01/13 07:00:45;;;;;;;13.20;5.87;;;0.30;92.20;;;;;;4951495;29;20472;-77
2021/01/13 07:03:25;;;;;;;12.43;5.83;;;0.30;92.20;;;;;;4936023;29;20031;-77
2021/01/13 07:05:55;;;;;;;10.60;5.57;;;0.30;92.20;;;;;;4919414;29;20055;-77
2021/01/13 07:08:21;;;;;;;12.50;5.67;;;0.20;92.30;;;;;;4950553;29;20028;-77
2021/01/13 07:10:47;;;;;;;14.17;5.47;;;0.30;92.30;;;;;;4919083;29;20396;-76
2021/01/13 07:13:15;;;;;;;11.97;5.73;;;0.30;92.30;;;;;;4918564;29;20034;-76
2021/01/13 07:15:41;;;;;;;18.67;6.40;;;0.30;92.30;;;;;;4914155;29;20055;-77
2021/01/13 07:18:08;;;;;;;13.17;4.57;;;0.30;92.30;;;;;;4899978;29;20036;-77
2021/01/13 07:20:41;;;;;;;12.50;5.47;;;0.30;92.30;;;;;;4899659;29;20474;-77
2021/01/13 07:23:08;;;;;;;13.07;5.17;;;0.30;92.30;;;;;;4900955;29;20034;-77
2021/01/13 07:25:43;;;;;;;13.50;6.60;;;0.30;92.30;;;;;;4906844;29;20034;-77
2021/01/13 07:28:10;;;;;;;12.53;5.50;;;0.40;92.30;;;;;;4953473;29;20023;-81
2021/01/13 07:30:38;;;;;;;15.37;6.33;;;0.40;92.50;;;;;;4907634;29;20032;-77
2021/01/13 07:33:10;;;;;;;17.03;6.27;;;0.40;92.20;;;;;;4938585;29;20093;-83
2021/01/13 07:35:48;;;;;;;13.77;6.10;;;0.40;92.20;;;;;;4908388;29;20093;-77
2021/01/13 07:38:19;;;;;;;12.17;6.10;;;0.40;92.20;;;;;;4947884;29;20035;-76
2021/01/13 07:41:05;;;;;;;19.37;6.13;;;0.40;92.20;;;;;;4928227;29;20473;-75
2021/01/13 07:43:55;;;;;;;15.17;6.27;;;0.40;92.20;;;;;;4946479;29;20039;-73
2021/01/13 07:46:29;;;;;;;15.80;6.50;;;0.50;92.20;;;;;;4957507;29;20035;-76
2021/01/13 07:49:17;;;;;;;17.13;6.20;;;0.50;92.50;;;;;;4940247;29;20023;-76
2021/01/13 07:51:50;;;;;;;11.77;5.93;;;0.50;92.10;;;;;;4958063;29;20047;-76
2021/01/13 07:54:33;;;;;;;17.37;6.33;;;0.50;92.10;;;;;;4939641;29;20130;-76
2021/01/13 07:57:01;;;;;;;13.53;5.67;;;0.50;92.10;;;;;;4941502;29;20031;-76
2021/01/13 07:59:52;;;;;;;13.67;6.00;;;0.50;92.10;;;;;;4937112;29;20487;-78
2021/01/13 08:02:27;;;;;;;18.23;5.93;;;0.50;92.20;;;;;;4904156;29;20040;-78
2021/01/13 08:05:13;;;;;;;17.00;5.90;;;0.50;92.10;;;;;;4903574;29;20028;-78
2021/01/13 08:07:40;;;;;;;15.20;5.33;;;0.60;92.20;;;;;;4941284;29;20027;-75
2021/01/13 08:10:07;;;;;;;10.67;5.37;;;0.60;92.40;;;;;;4939941;28;20106;-81
2021/01/13 08:13:08;;;;;;;13.13;5.60;;;0.60;92.10;;;;;;4921713;29;20030;-76
2021/01/13 08:16:03;;;;;;;14.90;5.87;;;0.60;92.00;;;;;;4921393;29;20023;-77
2021/01/13 08:18:44;;;;;;;;;;;;;;;;;;;;;
2021/01/13 08:21:24;;;;;;;11.60;5.10;;;0.70;92.10;;;;;;4927683;29;20470;-77
2021/01/13 08:24:03;;;;;;;14.57;5.57;;;0.70;92.10;;;;;;4918342;29;20062;-79
2021/01/13 08:26:29;;;;;;;14.83;5.37;;;0.70;92.00;;;;;;4933909;29;20039;-78
2021/01/13 08:28:57;;;;;;;10.67;5.10;;;0.80;92.00;;;;;;4924053;29;20039;-79
2021/01/13 08:31:27;;;;;;;13.57;5.13;;;0.80;91.90;;;;;;4912184;29;20124;-78
2021/01/13 08:34:06;;;;;;;13.73;5.27;;;0.90;91.90;;;;;;4911993;29;20028;-75
2021/01/13 08:36:33;;;;;;;13.70;5.90;;;1.00;91.80;;;;;;4928277;29;20783;-75
2021/01/13 08:39:13;;;;;;;20.57;5.57;;;1.00;91.80;;;;;;4930317;29;20032;-76
2021/01/13 08:41:40;;;;;;;14.40;5.33;;;1.00;91.70;;;;;;4938185;29;20032;-76
2021/01/13 08:44:09;;;;;;;12.80;5.77;;;1.10;91.60;;;;;;4920757;29;20529;-77
2021/01/13 08:46:44;;;;;;;9.27;4.97;;;1.10;91.60;;;;;;4944162;28;20232;-81
2021/01/13 08:49:18;;;;;;;13.03;5.37;;;1.10;91.40;;;;;;4956202;29;20039;-82
2021/01/13 08:52:04;;;;;;;14.60;5.20;;;1.20;91.30;;;;;;4929294;29;20027;-81
2021/01/13 08:54:30;;;;;;;11.53;4.83;;;1.20;91.30;;;;;;4937538;29;20047;-80
2021/01/13 08:56:58;;;;;;;13.93;5.20;;;1.20;91.30;;;;;;4953713;28;20483;-82
2021/01/13 08:59:41;;;;;;;12.17;5.67;;;1.30;91.40;;;;;;4937606;29;20047;-81
2021/01/13 09:02:15;;;;;;;13.47;5.43;;;1.30;91.30;;;;;;4921364;29;20036;-80
2021/01/13 09:04:41;;;;;;;9.30;4.50;;;1.30;91.40;;;;;;4952967;29;20036;-77
2021/01/13 09:07:11;;;;;;;12.80;5.27;;;1.40;91.20;;;;;;4938666;28;20050;-76
2021/01/13 09:09:43;;;;;;;19.33;5.20;;;1.40;91.20;;;;;;4920420;29;20039;-77
2021/01/13 09:12:27;;;;;;;13.73;4.72;;;1.50;91.20;;;;;;4920747;29;20027;-77
2021/01/13 09:15:18;;;;;;;11.33;4.10;;;1.50;90.90;;;;;;4919509;29;20067;-75
2021/01/13 09:17:44;;;;;;;13.63;4.70;;;1.60;90.90;;;;;;4951749;29;20040;-78
2021/01/13 09:20:12;;;;;;;9.97;4.80;;;1.60;90.80;;;;;;4951883;28;20028;-77
2021/01/13 09:22:52;;;;;;;11.87;4.90;;;1.70;90.70;;;;;;4951589;29;20035;-76
2021/01/13 09:25:19;;;;;;;16.30;5.57;;;1.70;90.60;;;;;;4944626;28;20049;-85
2021/01/13 09:27:47;;;;;;;14.10;5.00;;;1.70;90.50;;;;;;4901808;29;20160;-79
2021/01/13 09:30:26;;;;;;;14.23;5.67;;;1.80;90.30;;;;;;4901935;29;20128;-80
2021/01/13 09:32:53;;;;;;;13.63;5.00;;;1.80;90.40;;;;;;4901279;29;20507;-77
2021/01/13 09:35:31;;;;;;;16.27;6.17;;;1.80;90.30;;;;;;4900647;29;20060;-78
2021/01/13 09:37:59;;;;;;;17.00;5.77;;;1.90;90.50;;;;;;4902526;29;20040;-77
2021/01/13 09:40:51;;;;;;;14.43;6.07;;;1.80;90.40;;;;;;4919692;29;20028;-77
2021/01/13 09:43:25;;;;;;;16.90;6.55;;;1.80;90.30;;;;;;4933366;29;20047;-76
2021/01/13 09:45:56;;;;;;;15.00;6.53;;;1.80;90.50;;;;;;4918320;29;20113;-79
2021/01/13 09:48:23;;;;;;;12.23;5.68;;;1.80;90.60;;;;;;4918130;29;20028;-87
2021/01/13 09:51:11;;;;;;;13.90;4.83;;;1.80;90.40;;;;;;4919001;29;20039;-75
2021/01/13 09:53:52;;;;;;;11.87;4.70;;;1.80;90.40;;;;;;4950045;28;20107;-76
2021/01/13 09:56:18;;;;;;;11.57;5.30;;;1.90;90.50;;;;;;4919071;29;20054;-76
2021/01/13 09:58:46;;;;;;;12.33;4.97;;;1.90;90.50;;;;;;4937042;29;20090;-81
2021/01/13 10:01:22;;;;;;;15.17;4.67;;;1.90;90.40;;;;;;4951584;28;20032;-79
2021/01/13 10:03:50;;;;;;;13.60;5.60;;;2.00;90.30;;;;;;4936438;29;20032;-79
2021/01/13 10:06:30;;;;;;;17.80;5.30;;;2.10;90.30;;;;;;4935852;29;20042;-79
2021/01/13 10:09:08;;;;;;;13.23;5.33;;;2.10;90.00;;;;;;4954388;29;20028;-79
2021/01/13 10:11:34;;;;;;;14.80;5.63;;;2.20;90.00;;;;;;4938313;29;20074;-77
2021/01/13 10:14:02;;;;;;;11.77;5.07;;;2.30;90.00;;;;;;4937900;29;20027;-77
2021/01/13 10:16:29;;;;;;;12.10;5.13;;;2.30;89.80;;;;;;4936900;29;20043;-76
2021/01/13 10:19:01;;;;;;;18.80;5.47;;;2.30;89.20;;;;;;4901307;29;20036;-78
2021/01/13 10:21:40;;;;;;;12.63;5.50;;;2.40;89.50;;;;;;4900330;29;20099;-77
2021/01/13 10:24:11;;;;;;;15.73;5.60;;;2.40;89.40;;;;;;4917047;29;20028;-77
2021/01/13 10:26:43;;;;;;;11.60;5.23;;;2.50;89.20;;;;;;4916703;29;20322;-77
2021/01/13 10:29:10;;;;;;;11.97;4.83;;;2.50;88.80;;;;;;4900606;29;20033;-76
2021/01/13 10:31:37;;;;;;;16.57;5.37;;;2.60;88.80;;;;;;4900015;29;20032;-79
2021/01/13 10:34:04;;;;;;;12.93;5.00;;;2.60;88.20;;;;;;4900140;29;20032;-78
2021/01/13 10:36:32;;;;;;;13.27;5.30;;;2.80;88.80;;;;;;4899990;29;20051;-78
2021/01/13 10:39:08;;;;;;;11.90;5.83;;;2.80;87.40;;;;;;4909417;29;20088;-77
2021/01/13 10:41:39;;;;;;;10.67;4.80;;;2.80;87.50;;;;;;4928638;29;20103;-80
2021/01/13 10:44:11;;;;;;;12.00;4.57;;;2.90;87.50;;;;;;4908855;29;20065;-79
2021/01/13 10:46:45;;;;;;;8.97;4.50;;;3.00;86.60;;;;;;4926521;29;20075;-77
2021/01/13 10:49:21;;;;;;;12.43;4.90;;;2.90;86.60;;;;;;4925724;29;20035;-78
2021/01/13 10:51:49;;;;;;;9.53;4.30;;;3.00;86.50;;;;;;4921909;29;20063;-78
2021/01/13 10:54:20;;;;;;;7.63;4.20;;;3.00;86.10;;;;;;4912533;29;20051;-78
2021/01/13 10:56:52;;;;;;;10.47;5.03;;;3.00;86.10;;;;;;4919157;29;20031;-77
2021/01/13 10:59:18;;;;;;;10.93;4.75;;;3.10;86.00;;;;;;4919095;29;20032;-77
2021/01/13 11:01:58;;;;;;;10.33;3.97;;;3.10;85.20;;;;;;4918913;29;20191;-77
2021/01/13 11:04:25;;;;;;;9.77;4.30;;;3.20;84.40;;;;;;4950205;29;20078;-76
2021/01/13 11:07:19;;;;;;;9.90;4.57;;;3.20;84.50;;;;;;4935513;29;20024;-78
2021/01/13 11:09:48;;;;;;;9.17;4.23;;;3.20;84.30;;;;;;4932591;29;20411;-77
2021/01/13 11:12:24;;;;;;;11.03;4.37;;;3.30;84.90;;;;;;4906818;29;20059;-76
2021/01/13 11:14:54;;;;;;;9.97;4.77;;;3.20;84.60;;;;;;4915194;29;20082;-75
2021/01/13 11:17:25;;;;;;;9.37;4.17;;;3.30;84.40;;;;;;4916381;29;20039;-74
2021/01/13 11:19:54;;;;;;;10.23;4.33;;;3.30;84.40;;;;;;4910497;29;20024;-76
2021/01/13 11:22:29;;;;;;;14.33;4.47;;;3.30;85.20;;;;;;4909216;29;20115;-77
2021/01/13 11:24:55;;;;;;;11.07;4.57;;;3.30;84.80;;;;;;4910781;29;20031;-75
2021/01/13 11:27:24;;;;;;;12.47;4.83;;;3.30;84.20;;;;;;4924766;29;20020;-75
2021/01/13 11:29:56;;;;;;;9.73;4.37;;;3.40;84.60;;;;;;4925771;29;20038;-77
2021/01/13 11:32:26;;;;;;;11.75;5.00;;;3.40;84.20;;;;;;4905616;29;20031;-76
2021/01/13 11:34:56;;;;;;;7.93;4.23;;;3.40;84.50;;;;;;4902101;29;20075;-77
2021/01/13 11:37:48;;;;;;;9.67;4.10;;;3.40;84.00;;;;;;4910053;29;20037;-78
2021/01/13 11:40:17;;;;;;;;;;;3.40;83.90;;;;;;4905386;29;20042;-78
2021/01/13 11:43:16;;;;;;;16.00;4.80;;;3.50;83.70;;;;;;4932640;29;19910;-77
2021/01/13 11:45:48;;;;;;;12.70;4.67;;;3.50;83.60;;;;;;4926653;29;20036;-76
2021/01/13 11:48:20;;;;;;;14.68;4.78;;;3.50;83.30;;;;;;4934299;29;20036;-81
2021/01/13 11:50:47;;;;;;;;;;;3.50;83.10;;;;;;4909612;29;20040;-79
2021/01/13 11:53:22;;;;;;;12.47;4.70;;;3.60;83.10;;;;;;4918570;29;19925;-81
2021/01/13 11:55:48;;;;;;;10.17;4.70;;;3.60;84.00;;;;;;4919179;29;20036;-81
2021/01/13 11:58:17;;;;;;;14.13;5.70;;;3.60;83.50;;;;;;4912881;29;20036;-80
2021/01/13 12:00:42;;;;;;;14.83;5.93;;;3.60;83.60;;;;;;4909615;29;20442;-87
2021/01/13 12:03:18;;;;;;;10.97;5.40;;;3.60;84.00;;;;;;4916254;29;20036;-88
2021/01/13 12:05:45;;;;;;;11.80;5.27;;;3.60;83.60;;;;;;4915619;29;20034;-87
2021/01/13 12:08:13;;;;;;;14.03;5.73;;;3.70;84.00;;;;;;4916789;29;20067;-88
2021/01/13 12:10:41;;;;;;;13.03;5.03;;;3.80;84.20;;;;;;4917216;29;20035;-84
2021/01/13 12:13:13;;;;;;;9.47;5.30;;;3.80;83.80;;;;;;4931144;29;20028;-88
2021/01/13 12:15:54;;;;;;;15.83;5.70;;;3.90;83.30;;;;;;4938541;29;20035;-79
2021/01/13 12:18:23;;;;;;;11.57;5.10;;;3.90;83.40;;;;;;4953513;29;20032;-79
2021/01/13 12:20:53;;;;;;;13.70;5.37;;;4.00;83.50;;;;;;4938137;29;20040;-78
2021/01/13 12:23:20;;;;;;;9.80;5.10;;;4.10;83.50;;;;;;4907163;29;20124;-81
2021/01/13 12:25:46;;;;;;;9.90;5.13;;;4.10;83.70;;;;;;4917062;29;20518;-77
2021/01/13 12:28:13;;;;;;;15.10;5.90;;;4.20;83.10;;;;;;4922239;29;20031;-76
2021/01/13 12:30:55;;;;;;;15.27;6.30;;;4.40;83.00;;;;;;4910535;29;20122;-77
2021/01/13 12:33:20;;;;;;;9.52;4.88;;;4.30;82.70;;;;;;4921171;29;20093;-76
2021/01/13 12:35:46;;;;;;;14.27;6.17;;;4.40;82.50;;;;;;4915364;29;20039;-79
2021/01/13 12:38:12;;;;;;;14.10;5.17;;;4.60;81.40;;;;;;4941001;29;20496;-78
2021/01/13 12:40:38;;;;;;;12.47;5.07;;;4.90;80.10;;;;;;4939657;29;20059;-78
2021/01/13 12:43:18;;;;;;;11.60;5.20;;;5.10;79.20;;;;;;4911086;29;20104;-76
2021/01/13 12:45:45;;;;;;;10.30;4.87;;;5.00;78.30;;;;;;4917157;29;20036;-78
2021/01/13 12:48:11;;;;;;;10.83;4.83;;;5.20;78.30;;;;;;4907425;29;20039;-82
2021/01/13 12:50:37;;;;;;;13.40;5.03;;;5.10;77.00;;;;;;4912220;29;20032;-79
2021/01/13 12:53:03;;;;;;;10.47;4.80;;;5.10;78.30;;;;;;4914231;29;20058;-78
2021/01/13 12:55:29;;;;;;;9.60;4.83;;;5.20;77.70;;;;;;4914241;29;20115;-77
2021/01/13 12:57:56;;;;;;;11.27;4.60;;;5.00;77.90;;;;;;4923966;29;20048;-75
2021/01/13 13:00:22;;;;;;;14.20;5.37;;;4.90;78.20;;;;;;4912220;29;20058;-75
2021/01/13 13:02:48;;;;;;;9.47;4.87;;;4.90;79.10;;;;;;4911821;29;20032;-76
2021/01/13 13:05:15;;;;;;;10.03;4.67;;;4.80;78.60;;;;;;4911480;29;20082;-75
2021/01/13 13:07:40;;;;;;;8.30;4.17;;;4.80;78.70;;;;;;4908464;29;20028;-76
2021/01/13 13:10:06;;;;;;;12.03;4.27;;;4.70;77.80;;;;;;4914634;29;20028;-78
2021/01/13 13:12:32;;;;;;;10.10;4.23;;;4.80;78.10;;;;;;4908156;29;20175;-81
2021/01/13 13:14:58;;;;;;;10.30;3.77;;;5.10;77.20;;;;;;4909809;29;20135;-81
2021/01/13 13:17:23;;;;;;;10.40;3.77;;;5.10;75.70;;;;;;4923765;29;20171;-81